createdAt,value
2023-02-22T00:00:51.631Z,5.99
2023-02-22T00:01:51.867Z,5.91
2023-02-22T00:02:51.642Z,6.04
2023-02-22T00:03:51.628Z,6.05
2023-02-22T00:04:51.611Z,6.04
2023-02-22T00:05:51.606Z,6.02
2023-02-22T00:06:51.611Z,6.08
2023-02-22T00:07:51.600Z,6.14
2023-02-22T00:08:51.594Z,6.09
2023-02-22T00:09:51.582Z,6.08
2023-02-22T00:10:51.585Z,6.16
2023-02-22T00:11:51.576Z,6.16
2023-02-22T00:12:51.572Z,6.14
2023-02-22T00:13:51.567Z,6.14
2023-02-22T00:14:51.946Z,6.14
2023-02-22T00:15:51.555Z,6.11
2023-02-22T00:16:51.547Z,6.16
2023-02-22T00:17:51.546Z,6.12
2023-02-22T00:18:51.537Z,6.14
2023-02-22T00:19:51.533Z,6.19
2023-02-22T00:20:51.530Z,6.22
2023-02-22T00:21:51.525Z,6.09
2023-02-22T00:22:51.519Z,6.20
2023-02-22T00:23:51.513Z,6.26
2023-02-22T00:24:51.508Z,6.24
2023-02-22T00:25:51.505Z,6.24
2023-02-22T00:26:51.496Z,6.24
2023-02-22T00:27:51.495Z,6.16
2023-02-22T00:28:51.491Z,6.19
2023-02-22T00:29:51.481Z,6.19
2023-02-22T00:30:51.496Z,6.26
2023-02-22T00:31:51.604Z,6.22
2023-02-22T00:32:51.464Z,6.24
2023-02-22T00:33:51.462Z,6.26
2023-02-22T00:34:51.456Z,6.22
2023-02-22T00:35:51.454Z,6.22
2023-02-22T00:36:51.441Z,6.27
2023-02-22T00:37:51.445Z,6.30
2023-02-22T00:38:51.439Z,6.31
2023-02-22T00:39:51.434Z,6.26
2023-02-22T00:40:51.436Z,6.17
2023-02-22T00:41:51.463Z,6.27
2023-02-22T00:42:51.416Z,6.30
2023-02-22T00:43:51.420Z,6.33
2023-02-22T00:44:51.403Z,6.38
2023-02-22T00:45:51.432Z,6.28
2023-02-22T00:46:51.412Z,6.38
2023-02-22T00:47:51.400Z,6.33
2023-02-22T00:48:51.384Z,6.22
2023-02-22T00:49:51.386Z,6.26
2023-02-22T00:50:51.372Z,6.19
2023-02-22T00:51:51.378Z,6.14
2023-02-22T00:52:51.369Z,6.14
2023-02-22T00:53:51.360Z,6.16
2023-02-22T00:54:51.353Z,6.05
2023-02-22T00:55:51.359Z,6.17
2023-02-22T00:56:51.343Z,6.02
2023-02-22T00:57:51.342Z,6.07
2023-02-22T00:58:51.330Z,6.04
2023-02-22T00:59:51.331Z,6.04
2023-02-22T01:00:51.371Z,5.98
2023-02-22T01:01:51.319Z,6.02
2023-02-22T01:02:51.327Z,6.11
2023-02-22T01:03:51.305Z,5.99
2023-02-22T01:04:51.306Z,5.97
2023-02-22T01:05:51.302Z,6.01
2023-02-22T01:06:51.286Z,6.04
2023-02-22T01:07:51.288Z,6.07
2023-02-22T01:08:51.278Z,5.99
2023-02-22T01:09:51.273Z,5.97
2023-02-22T01:10:51.266Z,5.97
2023-02-22T01:11:51.262Z,5.97
2023-02-22T01:12:51.283Z,5.91
2023-02-22T01:13:51.254Z,5.94
2023-02-22T01:14:51.658Z,5.98
2023-02-22T01:15:51.242Z,5.94
2023-02-22T01:16:51.341Z,6.01
2023-02-22T01:17:51.238Z,5.99
2023-02-22T01:18:51.250Z,6.01
2023-02-22T01:19:53.858Z,5.99
2023-02-22T01:20:51.213Z,5.97
2023-02-22T01:21:51.220Z,5.98
2023-02-22T01:22:51.207Z,5.99
2023-02-22T01:23:51.203Z,6.01
2023-02-22T01:24:51.196Z,5.99
2023-02-22T01:25:51.195Z,5.99
2023-02-22T01:26:51.183Z,6.11
2023-02-22T01:27:51.177Z,5.99
2023-02-22T01:28:51.169Z,6.02
2023-02-22T01:29:51.167Z,5.93
2023-02-22T01:30:51.230Z,5.97
2023-02-22T01:31:51.183Z,6.01
2023-02-22T01:32:51.176Z,5.91
2023-02-22T01:33:51.146Z,5.91
2023-02-22T01:34:51.158Z,5.87
2023-02-22T01:35:51.135Z,5.89
2023-02-22T01:36:51.126Z,5.93
2023-02-22T01:37:51.124Z,5.98
2023-02-22T01:38:51.123Z,5.98
2023-02-22T01:39:51.120Z,5.93
2023-02-22T01:40:51.111Z,5.89
2023-02-22T01:41:51.099Z,5.93
2023-02-22T01:42:51.102Z,6.02
2023-02-22T01:43:51.096Z,6.04
2023-02-22T01:44:51.080Z,5.91
2023-02-22T01:45:51.173Z,5.91
2023-02-22T01:46:51.068Z,5.83
2023-02-22T01:47:51.067Z,5.99
2023-02-22T01:48:51.060Z,5.97
2023-02-22T01:49:51.054Z,5.89
2023-02-22T01:50:51.067Z,5.83
2023-02-22T01:51:51.048Z,5.82
2023-02-22T01:52:51.050Z,5.79
2023-02-22T01:53:51.035Z,5.72
2023-02-22T01:54:51.038Z,5.71
2023-02-22T01:55:51.032Z,5.72
2023-02-22T01:56:51.016Z,5.65
2023-02-22T01:57:51.011Z,5.66
2023-02-22T01:58:51.002Z,5.62
2023-02-22T01:59:51.002Z,5.53
2023-02-22T02:00:51.007Z,5.62
2023-02-22T02:01:50.992Z,5.62
2023-02-22T02:02:50.985Z,5.65
2023-02-22T02:03:51.004Z,5.59
2023-02-22T02:04:51.027Z,5.62
2023-02-22T02:05:50.968Z,5.62
2023-02-22T02:06:50.989Z,5.68
2023-02-22T02:07:50.955Z,5.57
2023-02-22T02:08:50.948Z,5.64
2023-02-22T02:09:50.952Z,5.65
2023-02-22T02:10:50.945Z,5.64
2023-02-22T02:11:50.933Z,5.59
2023-02-22T02:12:50.944Z,5.54
2023-02-22T02:13:50.924Z,5.59
2023-02-22T02:14:50.923Z,5.56
2023-02-22T02:15:50.916Z,5.57
2023-02-22T02:16:50.998Z,5.48
2023-02-22T02:17:50.959Z,5.43
2023-02-22T02:18:50.894Z,5.44
2023-02-22T02:19:51.343Z,5.46
2023-02-22T02:20:50.885Z,5.46
2023-02-22T02:21:50.881Z,5.36
2023-02-22T02:22:50.896Z,5.46
2023-02-22T02:23:50.872Z,5.30
2023-02-22T02:24:50.912Z,5.29
2023-02-22T02:25:50.860Z,5.32
2023-02-22T02:26:50.862Z,5.32
2023-02-22T02:27:50.861Z,5.32
2023-02-22T02:28:50.858Z,5.35
2023-02-22T02:29:50.891Z,5.29
2023-02-22T02:30:50.847Z,5.32
2023-02-22T02:31:51.028Z,5.28
2023-02-22T02:32:50.857Z,5.35
2023-02-22T02:33:50.888Z,5.28
2023-02-22T02:34:50.888Z,5.29
2023-02-22T02:35:50.839Z,5.29
2023-02-22T02:36:50.798Z,5.47
2023-02-22T02:37:50.796Z,5.43
2023-02-22T02:38:50.880Z,5.50
2023-02-22T02:39:50.784Z,5.57
2023-02-22T02:40:50.783Z,5.57
2023-02-22T02:41:50.775Z,5.53
2023-02-22T02:42:50.766Z,5.64
2023-02-22T02:43:50.774Z,5.65
2023-02-22T02:44:50.755Z,5.54
2023-02-22T02:45:50.754Z,5.53
2023-02-22T02:46:50.772Z,5.56
2023-02-22T02:47:50.740Z,5.50
2023-02-22T02:48:50.732Z,5.48
2023-02-22T02:49:50.731Z,5.53
2023-02-22T02:50:50.726Z,5.64
2023-02-22T02:51:50.719Z,5.50
2023-02-22T02:52:50.711Z,5.62
2023-02-22T02:53:50.709Z,5.59
2023-02-22T02:54:50.720Z,5.65
2023-02-22T02:55:50.694Z,5.64
2023-02-22T02:56:50.705Z,5.66
2023-02-22T02:57:50.703Z,5.73
2023-02-22T02:58:50.684Z,5.73
2023-02-22T02:59:50.677Z,5.66
2023-02-22T03:00:50.681Z,5.65
2023-02-22T03:01:50.722Z,5.56
2023-02-22T03:02:50.657Z,5.53
2023-02-22T03:03:50.654Z,5.62
2023-02-22T03:04:50.657Z,5.54
2023-02-22T03:05:50.646Z,5.54
2023-02-22T03:06:50.640Z,5.53
2023-02-22T03:07:50.636Z,5.57
2023-02-22T03:08:50.636Z,5.57
2023-02-22T03:09:50.622Z,5.62
2023-02-22T03:10:50.633Z,5.53
2023-02-22T03:11:50.609Z,5.51
2023-02-22T03:12:50.604Z,5.59
2023-02-22T03:13:50.600Z,5.61
2023-02-22T03:14:50.593Z,5.53
2023-02-22T03:15:50.587Z,5.53
2023-02-22T03:16:50.582Z,5.50
2023-02-22T03:17:50.576Z,5.51
2023-02-22T03:18:50.568Z,5.54
2023-02-22T03:19:50.565Z,5.59
2023-02-22T03:20:50.557Z,5.53
2023-02-22T03:21:50.555Z,5.51
2023-02-22T03:22:50.548Z,5.54
2023-02-22T03:23:50.550Z,5.57
2023-02-22T03:24:50.540Z,5.56
2023-02-22T03:25:50.546Z,5.57
2023-02-22T03:26:50.547Z,5.46
2023-02-22T03:27:50.530Z,5.39
2023-02-22T03:28:50.530Z,5.46
2023-02-22T03:29:50.519Z,5.35
2023-02-22T03:30:50.578Z,5.38
2023-02-22T03:31:50.530Z,5.46
2023-02-22T03:32:50.501Z,5.39
2023-02-22T03:33:50.495Z,5.30
2023-02-22T03:34:50.493Z,5.33
2023-02-22T03:35:50.485Z,5.30
2023-02-22T03:36:50.476Z,5.38
2023-02-22T03:37:50.481Z,5.29
2023-02-22T03:38:50.468Z,5.28
2023-02-22T03:39:50.465Z,5.30
2023-02-22T03:40:50.454Z,5.20
2023-02-22T03:41:50.453Z,5.23
2023-02-22T03:42:50.463Z,5.29
2023-02-22T03:43:50.449Z,5.33
2023-02-22T03:44:50.432Z,5.26
2023-02-22T03:45:50.430Z,5.28
2023-02-22T03:46:50.426Z,5.35
2023-02-22T03:47:50.421Z,5.29
2023-02-22T03:48:50.412Z,5.36
2023-02-22T03:49:50.403Z,5.38
2023-02-22T03:50:50.399Z,5.48
2023-02-22T03:51:50.391Z,5.46
2023-02-22T03:52:50.389Z,5.46
2023-02-22T03:53:50.410Z,5.43
2023-02-22T03:54:50.375Z,5.44
2023-02-22T03:55:50.369Z,5.43
2023-02-22T03:56:50.363Z,5.43
2023-02-22T03:57:50.355Z,5.32
2023-02-22T03:58:50.392Z,5.33
2023-02-22T03:59:50.350Z,5.33
2023-02-22T04:00:50.342Z,5.21
2023-02-22T04:01:50.336Z,5.25
2023-02-22T04:02:50.442Z,5.18
2023-02-22T04:03:50.344Z,5.20
2023-02-22T04:04:50.332Z,5.21
2023-02-22T04:05:50.315Z,5.14
2023-02-22T04:06:50.308Z,5.23
2023-02-22T04:07:50.302Z,5.15
2023-02-22T04:08:50.311Z,5.17
2023-02-22T04:09:50.298Z,5.15
2023-02-22T04:10:50.285Z,5.12
2023-02-22T04:11:50.287Z,5.20
2023-02-22T04:12:50.274Z,5.23
2023-02-22T04:13:50.269Z,5.18
2023-02-22T04:14:50.290Z,5.14
2023-02-22T04:15:50.286Z,5.18
2023-02-22T04:16:50.251Z,5.18
2023-02-22T04:17:50.246Z,5.14
2023-02-22T04:18:50.239Z,5.15
2023-02-22T04:19:50.233Z,5.20
2023-02-22T04:20:50.234Z,5.11
2023-02-22T04:21:50.238Z,5.05
2023-02-22T04:22:50.220Z,5.08
2023-02-22T04:23:50.214Z,5.02
2023-02-22T04:24:50.359Z,5.08
2023-02-22T04:25:50.206Z,5.04
2023-02-22T04:26:50.196Z,5.08
2023-02-22T04:27:50.189Z,5.11
2023-02-22T04:28:50.185Z,5.12
2023-02-22T04:29:50.190Z,5.18
2023-02-22T04:30:50.198Z,5.17
2023-02-22T04:31:50.193Z,5.14
2023-02-22T04:32:50.171Z,5.23
2023-02-22T04:33:50.158Z,5.30
2023-02-22T04:34:50.149Z,5.35
2023-02-22T04:35:50.146Z,5.35
2023-02-22T04:36:50.138Z,5.44
2023-02-22T04:37:50.134Z,5.35
2023-02-22T04:38:50.132Z,5.47
2023-02-22T04:39:50.141Z,5.36
2023-02-22T04:40:50.118Z,5.32
2023-02-22T04:41:50.111Z,5.44
2023-02-22T04:42:50.104Z,5.44
2023-02-22T04:43:50.100Z,5.35
2023-02-22T04:44:50.098Z,5.35
2023-02-22T04:45:50.091Z,5.35
2023-02-22T04:46:50.101Z,5.20
2023-02-22T04:47:50.078Z,5.23
2023-02-22T04:48:50.078Z,5.15
2023-02-22T04:49:50.063Z,5.14
2023-02-22T04:50:50.061Z,5.12
2023-02-22T04:51:50.052Z,5.07
2023-02-22T04:52:50.053Z,5.14
2023-02-22T04:53:50.040Z,5.10
2023-02-22T04:54:50.043Z,5.02
2023-02-22T04:55:50.042Z,4.94
2023-02-22T04:56:50.035Z,5.10
2023-02-22T04:57:50.025Z,5.00
2023-02-22T04:58:50.055Z,5.05
2023-02-22T04:59:50.015Z,4.97
2023-02-22T05:00:50.006Z,5.00
2023-02-22T05:01:49.995Z,5.07
2023-02-22T05:02:50.082Z,5.11
2023-02-22T05:03:49.990Z,5.08
2023-02-22T05:04:50.014Z,5.07
2023-02-22T05:05:49.977Z,5.08
2023-02-22T05:06:49.968Z,5.00
2023-02-22T05:07:49.972Z,5.00
2023-02-22T05:08:49.956Z,4.97
2023-02-22T05:09:49.954Z,4.86
2023-02-22T05:10:49.946Z,4.84
2023-02-22T05:11:49.937Z,4.86
2023-02-22T05:12:49.933Z,4.77
2023-02-22T05:13:49.924Z,4.74
2023-02-22T05:14:49.920Z,4.71
2023-02-22T05:15:49.995Z,4.68
2023-02-22T05:16:49.908Z,4.55
2023-02-22T05:17:49.902Z,4.63
2023-02-22T05:18:49.922Z,4.58
2023-02-22T05:19:49.894Z,4.44
2023-02-22T05:20:49.888Z,4.44
2023-02-22T05:21:49.880Z,4.40
2023-02-22T05:22:49.875Z,4.35
2023-02-22T05:23:49.867Z,4.40
2023-02-22T05:24:49.865Z,4.35
2023-02-22T05:25:49.855Z,4.38
2023-02-22T05:26:49.852Z,4.32
2023-02-22T05:27:49.845Z,4.37
2023-02-22T05:28:49.843Z,4.32
2023-02-22T05:29:50.032Z,4.34
2023-02-22T05:30:49.827Z,4.35
2023-02-22T05:31:49.928Z,4.34
2023-02-22T05:32:49.815Z,4.31
2023-02-22T05:33:49.807Z,4.30
2023-02-22T05:34:49.828Z,4.31
2023-02-22T05:35:49.798Z,4.28
2023-02-22T05:36:49.790Z,4.22
2023-02-22T05:37:49.787Z,4.17
2023-02-22T05:38:49.799Z,4.17
2023-02-22T05:39:49.774Z,4.12
2023-02-22T05:40:49.771Z,4.16
2023-02-22T05:41:49.762Z,4.12
2023-02-22T05:42:49.758Z,4.05
2023-02-22T05:43:49.750Z,4.04
2023-02-22T05:44:49.744Z,3.98
2023-02-22T05:45:49.742Z,4.04
2023-02-22T05:46:49.798Z,4.12
2023-02-22T05:47:49.731Z,4.05
2023-02-22T05:48:49.720Z,4.08
2023-02-22T05:49:49.715Z,4.10
2023-02-22T05:50:49.726Z,4.10
2023-02-22T05:51:49.701Z,4.19
2023-02-22T05:52:49.705Z,4.10
2023-02-22T05:53:49.688Z,4.12
2023-02-22T05:54:49.682Z,4.10
2023-02-22T05:55:49.674Z,3.99
2023-02-22T05:56:49.676Z,4.04
2023-02-22T05:57:49.663Z,4.10
2023-02-22T05:58:49.658Z,4.13
2023-02-22T05:59:49.659Z,4.13
2023-02-22T06:00:49.676Z,4.13
2023-02-22T06:01:49.672Z,4.13
2023-02-22T06:02:49.642Z,4.14
2023-02-22T06:03:49.639Z,4.17
2023-02-22T06:04:49.618Z,4.05
2023-02-22T06:05:49.680Z,4.08
2023-02-22T06:06:49.631Z,4.12
2023-02-22T06:07:49.600Z,4.06
2023-02-22T06:08:49.613Z,4.22
2023-02-22T06:09:49.594Z,4.23
2023-02-22T06:10:49.585Z,4.19
2023-02-22T06:11:49.587Z,4.20
2023-02-22T06:12:49.571Z,4.28
2023-02-22T06:13:49.566Z,4.20
2023-02-22T06:14:49.563Z,4.30
2023-02-22T06:15:49.568Z,4.34
2023-02-22T06:16:49.550Z,4.34
2023-02-22T06:17:49.542Z,4.37
2023-02-22T06:18:49.536Z,4.38
2023-02-22T06:19:49.534Z,4.38
2023-02-22T06:20:49.528Z,4.38
2023-02-22T06:21:49.526Z,4.41
2023-02-22T06:22:49.528Z,4.49
2023-02-22T06:23:49.503Z,4.42
2023-02-22T06:24:49.570Z,4.58
2023-02-22T06:25:49.504Z,4.56
2023-02-22T06:26:49.491Z,4.62
2023-02-22T06:27:49.480Z,4.70
2023-02-22T06:28:49.491Z,4.58
2023-02-22T06:29:49.820Z,4.67
2023-02-22T06:30:49.497Z,4.63
2023-02-22T06:31:49.562Z,4.70
2023-02-22T06:32:49.449Z,4.67
2023-02-22T06:33:49.442Z,4.66
2023-02-22T06:34:49.448Z,4.59
2023-02-22T06:35:49.433Z,4.50
2023-02-22T06:36:49.431Z,4.45
2023-02-22T06:37:49.419Z,4.45
2023-02-22T06:38:49.441Z,4.38
2023-02-22T06:39:49.414Z,4.37
2023-02-22T06:40:49.408Z,4.32
2023-02-22T06:41:49.435Z,4.34
2023-02-22T06:42:49.402Z,4.44
2023-02-22T06:43:49.401Z,4.35
2023-02-22T06:44:51.656Z,4.52
2023-02-22T06:45:49.433Z,4.45
2023-02-22T06:46:49.375Z,4.42
2023-02-22T06:47:49.362Z,4.42
2023-02-22T06:48:49.355Z,4.48
2023-02-22T06:49:49.349Z,4.42
2023-02-22T06:50:49.346Z,4.49
2023-02-22T06:51:49.337Z,4.48
2023-02-22T06:52:49.335Z,4.53
2023-02-22T06:53:49.322Z,4.58
2023-02-22T06:54:49.337Z,4.53
2023-02-22T06:55:49.315Z,4.53
2023-02-22T06:56:49.306Z,4.53
2023-02-22T06:57:49.302Z,4.50
2023-02-22T06:58:49.297Z,4.45
2023-02-22T06:59:49.291Z,4.48
2023-02-22T07:00:49.332Z,4.49
2023-02-22T07:01:49.280Z,4.42
2023-02-22T07:02:49.281Z,4.45
2023-02-22T07:03:49.267Z,4.48
2023-02-22T07:04:49.263Z,4.44
2023-02-22T07:05:49.271Z,4.42
2023-02-22T07:06:49.253Z,4.34
2023-02-22T07:07:49.249Z,4.34
2023-02-22T07:08:49.242Z,4.32
2023-02-22T07:09:49.236Z,4.38
2023-02-22T07:10:49.249Z,4.37
2023-02-22T07:11:49.224Z,4.40
2023-02-22T07:12:49.220Z,4.40
2023-02-22T07:13:49.344Z,4.45
2023-02-22T07:14:49.210Z,4.50
2023-02-22T07:15:49.203Z,4.50
2023-02-22T07:16:49.203Z,4.58
2023-02-22T07:17:49.188Z,4.55
2023-02-22T07:18:49.187Z,4.52
2023-02-22T07:19:49.178Z,4.67
2023-02-22T07:20:49.201Z,4.66
2023-02-22T07:21:49.173Z,4.74
2023-02-22T07:22:49.158Z,4.70
2023-02-22T07:23:49.156Z,4.67
2023-02-22T07:24:49.153Z,4.73
2023-02-22T07:25:49.143Z,4.77
2023-02-22T07:26:49.156Z,4.77
2023-02-22T07:27:49.130Z,4.82
2023-02-22T07:28:49.134Z,4.90
2023-02-22T07:29:49.471Z,4.87
2023-02-22T07:30:49.193Z,4.92
2023-02-22T07:31:49.161Z,4.84
2023-02-22T07:32:49.155Z,5.04
2023-02-22T07:33:49.192Z,4.96
2023-02-22T07:34:49.095Z,5.04
2023-02-22T07:35:49.110Z,5.00
2023-02-22T07:36:49.090Z,4.99
2023-02-22T07:37:49.072Z,5.04
2023-02-22T07:38:49.069Z,5.08
2023-02-22T07:39:49.066Z,5.05
2023-02-22T07:40:49.063Z,5.10
2023-02-22T07:41:49.050Z,5.15
2023-02-22T07:42:49.070Z,5.10
2023-02-22T07:43:49.047Z,5.12
2023-02-22T07:44:49.033Z,5.23
2023-02-22T07:45:49.144Z,5.25
2023-02-22T07:46:49.040Z,5.33
2023-02-22T07:47:49.021Z,5.32
2023-02-22T07:48:49.014Z,5.35
2023-02-22T07:49:49.006Z,5.46
2023-02-22T07:50:49.008Z,5.44
2023-02-22T07:51:48.994Z,5.39
2023-02-22T07:52:48.989Z,5.41
2023-02-22T07:53:48.983Z,5.51
2023-02-22T07:54:49.029Z,5.51
2023-02-22T07:55:48.976Z,5.53
2023-02-22T07:56:48.988Z,5.51
2023-02-22T07:57:48.967Z,5.56
2023-02-22T07:58:48.980Z,5.56
2023-02-22T07:59:48.960Z,5.57
2023-02-22T08:00:48.940Z,5.62
2023-02-22T08:01:48.941Z,5.65
2023-02-22T08:02:48.996Z,5.68
2023-02-22T08:03:49.006Z,5.68
2023-02-22T08:04:48.918Z,5.75
2023-02-22T08:05:48.921Z,5.80
2023-02-22T08:06:48.917Z,5.90
2023-02-22T08:07:48.907Z,5.97
2023-02-22T08:08:48.909Z,5.98
2023-02-22T08:09:48.893Z,6.01
2023-02-22T08:10:48.891Z,6.12
2023-02-22T08:11:48.887Z,6.17
2023-02-22T08:12:48.874Z,6.27
2023-02-22T08:13:48.877Z,6.27
2023-02-22T08:14:48.889Z,6.39
2023-02-22T08:15:48.867Z,6.41
2023-02-22T08:16:48.889Z,6.57
2023-02-22T08:17:48.849Z,6.54
2023-02-22T08:18:48.855Z,6.67
2023-02-22T08:19:48.839Z,6.70
2023-02-22T08:20:48.831Z,6.81
2023-02-22T08:21:48.828Z,6.96
2023-02-22T08:22:48.828Z,7.06
2023-02-22T08:23:48.819Z,7.11
2023-02-22T08:24:48.809Z,7.07
2023-02-22T08:25:48.805Z,7.21
2023-02-22T08:26:48.804Z,7.23
2023-02-22T08:27:48.815Z,7.17
2023-02-22T08:28:48.791Z,7.24
2023-02-22T08:29:48.795Z,7.32
2023-02-22T08:30:48.851Z,7.32
2023-02-22T08:31:48.858Z,7.36
2023-02-22T08:32:48.954Z,7.38
2023-02-22T08:33:48.771Z,7.51
2023-02-22T08:34:48.757Z,7.50
2023-02-22T08:35:48.761Z,7.50
2023-02-22T08:36:48.746Z,7.48
2023-02-22T08:37:48.745Z,7.50
2023-02-22T08:38:48.743Z,7.48
2023-02-22T08:39:48.734Z,7.42
2023-02-22T08:40:48.737Z,7.53
2023-02-22T08:41:48.724Z,7.53
2023-02-22T08:42:48.730Z,7.60
2023-02-22T08:43:48.718Z,7.56
2023-02-22T08:44:48.710Z,7.57
2023-02-22T08:45:48.802Z,7.70
2023-02-22T08:46:48.719Z,7.63
2023-02-22T08:47:48.692Z,7.61
2023-02-22T08:48:48.683Z,7.70
2023-02-22T08:49:48.677Z,7.76
2023-02-22T08:50:48.674Z,7.75
2023-02-22T08:51:48.670Z,7.80
2023-02-22T08:52:48.671Z,7.77
2023-02-22T08:53:48.659Z,7.82
2023-02-22T08:54:48.656Z,7.90
2023-02-22T08:55:48.649Z,7.85
2023-02-22T08:56:48.640Z,7.93
2023-02-22T08:57:48.637Z,7.87
2023-02-22T08:58:48.630Z,7.95
2023-02-22T08:59:48.638Z,7.95
2023-02-22T09:00:48.619Z,7.98
2023-02-22T09:01:48.678Z,7.95
2023-02-22T09:02:48.650Z,7.98
2023-02-22T09:03:48.654Z,8.00
2023-02-22T09:04:48.603Z,7.98
2023-02-22T09:05:48.647Z,8.03
2023-02-22T09:06:48.614Z,8.06
2023-02-22T09:07:48.586Z,8.05
2023-02-22T09:08:48.587Z,8.03
2023-02-22T09:09:48.575Z,8.10
2023-02-22T09:10:48.569Z,8.03
2023-02-22T09:11:48.568Z,8.15
2023-02-22T09:12:48.563Z,8.16
2023-02-22T09:13:48.566Z,8.20
2023-02-22T09:14:48.552Z,8.16
2023-02-22T09:15:48.546Z,8.13
2023-02-22T09:16:48.579Z,8.12
2023-02-22T09:17:48.546Z,8.18
2023-02-22T09:18:48.550Z,8.26
2023-02-22T09:19:48.529Z,8.26
2023-02-22T09:20:48.527Z,8.20
2023-02-22T09:21:48.520Z,8.23
2023-02-22T09:22:48.512Z,8.24
2023-02-22T09:23:48.508Z,8.36
2023-02-22T09:24:48.500Z,8.28
2023-02-22T09:25:48.499Z,8.48
2023-02-22T09:26:48.492Z,8.56
2023-02-22T09:27:48.496Z,8.53
2023-02-22T09:28:48.482Z,8.49
2023-02-22T09:29:48.487Z,8.46
2023-02-22T09:30:48.554Z,8.46
2023-02-22T09:31:48.569Z,8.48
2023-02-22T09:32:48.690Z,8.56
2023-02-22T09:33:48.460Z,8.53
2023-02-22T09:34:48.473Z,8.49
2023-02-22T09:35:48.454Z,8.51
2023-02-22T09:36:48.448Z,8.58
2023-02-22T09:37:48.451Z,8.55
2023-02-22T09:38:48.435Z,8.60
2023-02-22T09:39:48.529Z,8.58
2023-02-22T09:40:48.436Z,8.51
2023-02-22T09:41:48.436Z,8.63
2023-02-22T09:42:48.420Z,8.63
2023-02-22T09:43:48.415Z,8.66
2023-02-22T09:44:48.419Z,8.71
2023-02-22T09:45:48.459Z,8.69
2023-02-22T09:46:48.397Z,8.71
2023-02-22T09:47:48.418Z,8.73
2023-02-22T09:48:48.388Z,8.74
2023-02-22T09:49:48.395Z,8.69
2023-02-22T09:50:48.403Z,8.76
2023-02-22T09:51:48.378Z,8.73
2023-02-22T09:52:48.382Z,8.70
2023-02-22T09:53:48.369Z,8.78
2023-02-22T09:54:48.363Z,8.78
2023-02-22T09:55:48.359Z,8.84
2023-02-22T09:56:48.361Z,8.79
2023-02-22T09:57:48.352Z,8.73
2023-02-22T09:58:48.345Z,8.84
2023-02-22T09:59:48.340Z,8.85
2023-02-22T10:00:48.367Z,8.70
2023-02-22T10:01:48.332Z,8.84
2023-02-22T10:02:48.329Z,8.79
2023-02-22T10:03:48.356Z,8.85
2023-02-22T10:04:48.321Z,8.82
2023-02-22T10:05:48.314Z,8.87
2023-02-22T10:06:48.325Z,8.79
2023-02-22T10:07:48.306Z,8.78
2023-02-22T10:08:48.300Z,8.79
2023-02-22T10:09:48.299Z,8.81
2023-02-22T10:10:48.293Z,8.85
2023-02-22T10:11:48.288Z,8.81
2023-02-22T10:12:48.281Z,8.84
2023-02-22T10:13:48.281Z,8.84
2023-02-22T10:14:48.271Z,8.94
2023-02-22T10:15:48.268Z,8.92
2023-02-22T10:16:48.294Z,8.91
2023-02-22T10:17:48.262Z,9.00
2023-02-22T10:18:48.259Z,9.00
2023-02-22T10:19:48.264Z,9.03
2023-02-22T10:20:48.248Z,9.00
2023-02-22T10:21:48.247Z,8.95
2023-02-22T10:22:48.269Z,9.06
2023-02-22T10:23:48.235Z,9.06
2023-02-22T10:24:48.227Z,9.11
2023-02-22T10:25:48.225Z,9.06
2023-02-22T10:26:48.219Z,9.06
2023-02-22T10:27:48.224Z,9.10
2023-02-22T10:28:48.213Z,9.10
2023-02-22T10:29:48.211Z,9.10
2023-02-22T10:30:48.278Z,9.14
2023-02-22T10:31:48.390Z,9.11
2023-02-22T10:32:48.210Z,9.16
2023-02-22T10:33:48.247Z,9.25
2023-02-22T10:34:48.540Z,9.16
2023-02-22T10:35:48.220Z,9.23
2023-02-22T10:36:48.207Z,9.29
2023-02-22T10:37:48.272Z,9.29
2023-02-22T10:38:48.260Z,9.31
2023-02-22T10:39:48.228Z,9.31
2023-02-22T10:40:48.167Z,9.40
2023-02-22T10:41:48.167Z,9.41
2023-02-22T10:42:48.157Z,9.44
2023-02-22T10:43:48.152Z,9.48
2023-02-22T10:44:48.143Z,9.47
2023-02-22T10:45:48.186Z,9.54
2023-02-22T10:46:48.136Z,9.58
2023-02-22T10:47:48.136Z,9.58
2023-02-22T10:48:48.127Z,9.61
2023-02-22T10:49:48.124Z,9.64
2023-02-22T10:50:48.121Z,9.55
2023-02-22T10:51:48.116Z,9.58
2023-02-22T10:52:48.111Z,9.68
2023-02-22T10:53:48.108Z,9.68
2023-02-22T10:54:48.127Z,9.73
2023-02-22T10:55:48.127Z,9.76
2023-02-22T10:56:48.095Z,9.76
2023-02-22T10:57:48.095Z,9.84
2023-02-22T10:58:48.087Z,9.82
2023-02-22T10:59:48.086Z,9.79
2023-02-22T11:00:48.079Z,9.87
2023-02-22T11:01:48.234Z,9.89
2023-02-22T11:02:48.067Z,9.84
2023-02-22T11:03:48.068Z,9.84
2023-02-22T11:04:48.086Z,9.91
2023-02-22T11:05:48.056Z,9.94
2023-02-22T11:06:48.051Z,9.91
2023-02-22T11:07:48.053Z,9.98
2023-02-22T11:08:48.043Z,9.99
2023-02-22T11:09:48.043Z,10.07
2023-02-22T11:10:48.054Z,10.07
2023-02-22T11:11:48.029Z,10.10
2023-02-22T11:12:48.045Z,10.16
2023-02-22T11:13:48.028Z,10.17
2023-02-22T11:14:48.017Z,10.31
2023-02-22T11:15:48.017Z,10.26
2023-02-22T11:16:48.037Z,10.25
2023-02-22T11:17:48.011Z,10.28
2023-02-22T11:18:48.015Z,10.35
2023-02-22T11:19:48.005Z,10.49
2023-02-22T11:20:48.000Z,10.42
2023-02-22T11:21:47.987Z,10.38
2023-02-22T11:22:47.996Z,10.51
2023-02-22T11:23:47.982Z,10.48
2023-02-22T11:24:49.427Z,10.64
2023-02-22T11:25:47.974Z,10.67
2023-02-22T11:26:47.993Z,10.60
2023-02-22T11:27:47.973Z,10.69
2023-02-22T11:28:47.959Z,10.72
2023-02-22T11:29:47.954Z,10.67
2023-02-22T11:30:48.042Z,10.72
2023-02-22T11:31:48.029Z,10.78
2023-02-22T11:32:47.967Z,10.69
2023-02-22T11:33:47.938Z,10.71
2023-02-22T11:34:49.376Z,10.71
2023-02-22T11:35:48.283Z,10.71
2023-02-22T11:36:47.925Z,10.71
2023-02-22T11:37:47.921Z,10.69
2023-02-22T11:38:47.914Z,10.68
2023-02-22T11:39:47.996Z,10.75
2023-02-22T11:40:47.907Z,10.79
2023-02-22T11:41:47.906Z,10.92
2023-02-22T11:42:47.927Z,10.93
2023-02-22T11:43:47.900Z,10.93
2023-02-22T11:44:47.889Z,10.93
2023-02-22T11:45:57.815Z,11.05
2023-02-22T11:46:47.926Z,10.94
2023-02-22T11:47:47.888Z,10.97
2023-02-22T11:48:47.872Z,10.97
2023-02-22T11:49:47.872Z,10.97
2023-02-22T11:50:47.865Z,10.96
2023-02-22T11:51:47.863Z,10.96
2023-02-22T11:52:47.858Z,11.02
2023-02-22T11:53:47.853Z,11.04
2023-02-22T11:54:47.910Z,11.15
2023-02-22T11:55:47.845Z,11.10
2023-02-22T11:56:47.896Z,11.00
2023-02-22T11:57:47.846Z,11.04
2023-02-22T11:58:47.903Z,11.12
2023-02-22T11:59:47.831Z,11.10
2023-02-22T12:00:47.825Z,11.05
2023-02-22T12:01:47.834Z,11.07
2023-02-22T12:02:56.717Z,11.12
2023-02-22T12:03:47.915Z,11.15
2023-02-22T12:04:47.912Z,11.15
2023-02-22T12:05:47.805Z,11.15
2023-02-22T12:06:47.805Z,11.27
2023-02-22T12:07:47.811Z,11.18
2023-02-22T12:08:47.796Z,11.26
2023-02-22T12:09:47.788Z,11.33
2023-02-22T12:10:47.792Z,11.35
2023-02-22T12:11:47.801Z,11.30
2023-02-22T12:12:47.777Z,11.32
2023-02-22T12:13:47.778Z,11.27
2023-02-22T12:14:47.945Z,11.36
2023-02-22T12:15:47.821Z,11.33
2023-02-22T12:16:47.777Z,11.33
2023-02-22T12:17:58.095Z,11.43
2023-02-22T12:18:47.757Z,11.48
2023-02-22T12:19:47.751Z,11.40
2023-02-22T12:20:47.747Z,11.43
2023-02-22T12:21:47.745Z,11.45
2023-02-22T12:22:47.740Z,11.33
2023-02-22T12:23:47.739Z,11.37
2023-02-22T12:24:48.887Z,11.41
2023-02-22T12:25:47.734Z,11.33
2023-02-22T12:26:47.725Z,11.35
2023-02-22T12:27:47.725Z,11.35
2023-02-22T12:28:47.849Z,11.36
2023-02-22T12:29:47.724Z,11.43
2023-02-22T12:30:47.931Z,11.36
2023-02-22T12:31:47.817Z,11.40
2023-02-22T12:32:47.806Z,11.45
2023-02-22T12:33:47.746Z,11.30
2023-02-22T12:34:47.703Z,11.27
2023-02-22T12:35:47.707Z,11.35
2023-02-22T12:36:47.696Z,11.33
2023-02-22T12:37:47.688Z,11.27
2023-02-22T12:38:47.738Z,11.32
2023-02-22T12:39:53.567Z,11.29
2023-02-22T12:40:47.684Z,11.32
2023-02-22T12:41:47.676Z,11.33
2023-02-22T12:42:47.673Z,11.26
2023-02-22T12:43:47.674Z,11.29
2023-02-22T12:44:47.669Z,11.29
2023-02-22T12:45:47.662Z,11.35
2023-02-22T12:46:47.681Z,11.30
2023-02-22T12:47:47.657Z,11.33
2023-02-22T12:48:47.657Z,11.27
2023-02-22T12:49:47.660Z,11.26
2023-02-22T12:50:47.647Z,11.27
2023-02-22T12:51:47.642Z,11.33
2023-02-22T12:52:47.651Z,11.33
2023-02-22T12:53:47.643Z,11.32
2023-02-22T12:54:47.631Z,11.33
2023-02-22T12:55:47.626Z,11.29
2023-02-22T12:56:47.627Z,11.44
2023-02-22T12:57:47.621Z,11.35
2023-02-22T12:58:47.616Z,11.36
2023-02-22T12:59:47.616Z,11.36
2023-02-22T13:00:47.615Z,11.33
2023-02-22T13:01:47.653Z,11.29
2023-02-22T13:02:47.631Z,11.30
2023-02-22T13:03:47.610Z,11.29
2023-02-22T13:04:47.596Z,11.40
2023-02-22T13:05:47.589Z,11.33
2023-02-22T13:06:47.595Z,11.35
2023-02-22T13:07:47.584Z,11.36
2023-02-22T13:08:47.584Z,11.29
2023-02-22T13:09:47.580Z,11.27
2023-02-22T13:10:47.576Z,11.30
2023-02-22T13:11:47.573Z,11.30
2023-02-22T13:12:47.567Z,11.30
2023-02-22T13:13:47.560Z,11.32
2023-02-22T13:14:47.564Z,11.29